createdAt,value
2019-04-20T00:01:01.534Z,5.47
2019-04-20T00:02:13.469Z,5.97
2019-04-20T00:03:13.770Z,5.60
2019-04-20T00:04:23.398Z,5.73
2019-04-20T00:05:25.383Z,5.57
2019-04-20T00:06:31.732Z,5.60
2019-04-20T00:07:37.567Z,5.60
2019-04-20T00:08:43.140Z,5.93
2019-04-20T00:09:55.370Z,5.60
2019-04-20T00:11:02.595Z,5.13
2019-04-20T00:12:08.885Z,5.43
2019-04-20T00:13:20.786Z,5.77
2019-04-20T00:14:19.023Z,5.50
2019-04-20T00:15:19.715Z,5.40
2019-04-20T00:16:25.169Z,5.60
2019-04-20T00:17:30.666Z,5.53
2019-04-20T00:18:43.204Z,5.37
2019-04-20T00:19:47.018Z,7.30
2019-04-20T00:21:00.326Z,6.47
2019-04-20T00:22:08.020Z,6.20
2019-04-20T00:23:39.901Z,6.60
2019-04-20T00:25:04.257Z,5.40
2019-04-20T00:26:57.780Z,5.53
2019-04-20T00:27:55.640Z,5.03
2019-04-20T00:29:00.202Z,5.50
2019-04-20T00:30:04.323Z,5.40
2019-04-20T00:31:09.755Z,5.23
2019-04-20T00:32:09.875Z,5.00
2019-04-20T00:33:21.995Z,5.57
2019-04-20T00:34:18.260Z,5.83
2019-04-20T00:35:18.785Z,5.93
2019-04-20T00:36:24.265Z,5.73
2019-04-20T00:37:29.754Z,6.03
2019-04-20T00:38:40.870Z,5.80
2019-04-20T00:39:40.587Z,6.00
2019-04-20T00:40:45.506Z,5.63
2019-04-20T00:41:56.046Z,6.50
2019-04-20T00:42:59.563Z,6.03
2019-04-20T00:44:08.327Z,5.50
2019-04-20T00:45:17.991Z,6.00
2019-04-20T00:46:23.097Z,5.57
2019-04-20T00:47:34.855Z,5.70
2019-04-20T00:48:38.909Z,5.53
2019-04-20T00:49:44.497Z,5.57
2019-04-20T00:50:48.811Z,5.37
2019-04-20T00:52:13.504Z,5.30
2019-04-20T00:53:05.699Z,5.03
2019-04-20T00:53:58.752Z,5.00
2019-04-20T00:55:04.125Z,4.90
2019-04-20T00:56:09.883Z,5.27
2019-04-20T00:57:24.713Z,4.70
2019-04-20T00:58:28.897Z,5.80
2019-04-20T00:59:49.548Z,4.87
2019-04-20T01:00:51.077Z,5.57
2019-04-20T01:01:59.573Z,5.13
2019-04-20T01:02:56.911Z,5.33
2019-04-20T01:04:11.970Z,4.53
2019-04-20T01:05:16.429Z,4.90
2019-04-20T01:06:41.178Z,4.93
2019-04-20T01:07:53.566Z,5.00
2019-04-20T01:09:03.520Z,5.13
2019-04-20T01:10:11.065Z,5.07
2019-04-20T01:11:16.738Z,5.10
2019-04-20T01:12:26.051Z,5.17
2019-04-20T01:13:28.777Z,5.43
2019-04-20T01:14:40.587Z,4.70
2019-04-20T01:15:48.871Z,5.63
2019-04-20T01:16:51.300Z,5.67
2019-04-20T01:17:51.846Z,5.20
2019-04-20T01:18:56.183Z,5.97
2019-04-20T01:20:00.565Z,5.57
2019-04-20T01:21:11.807Z,5.30
2019-04-20T01:22:16.552Z,5.80
2019-04-20T01:23:20.938Z,5.03
2019-04-20T01:24:29.628Z,5.13
2019-04-20T01:25:33.779Z,5.20
2019-04-20T01:26:41.917Z,5.00
2019-04-20T01:28:01.878Z,4.83
2019-04-20T01:29:01.607Z,5.17
2019-04-20T01:30:05.846Z,5.40
2019-04-20T01:31:12.700Z,4.80
2019-04-20T01:32:15.393Z,4.87
2019-04-20T01:33:25.782Z,4.53
2019-04-20T01:34:32.221Z,5.50
2019-04-20T01:35:39.427Z,5.80
2019-04-20T01:36:45.707Z,5.37
2019-04-20T01:37:57.498Z,4.90
2019-04-20T01:38:57.832Z,5.03
2019-04-20T01:39:55.128Z,5.37
2019-04-20T01:40:57.182Z,4.80
2019-04-20T01:42:02.376Z,5.27
2019-04-20T01:43:08.007Z,5.43
2019-04-20T01:44:13.428Z,5.30
2019-04-20T01:45:26.787Z,4.90
2019-04-20T01:46:28.064Z,5.10
2019-04-20T01:47:37.959Z,5.40
2019-04-20T01:48:39.525Z,5.40
2019-04-20T01:49:46.710Z,5.53
2019-04-20T01:50:59.452Z,5.00
2019-04-20T01:52:03.797Z,5.00
2019-04-20T01:53:11.551Z,5.03
2019-04-20T01:54:29.746Z,4.77
2019-04-20T01:55:38.715Z,5.17
2019-04-20T01:56:40.431Z,5.10
2019-04-20T01:57:54.782Z,5.17
2019-04-20T01:59:20.153Z,5.30
2019-04-20T02:00:45.923Z,5.30
2019-04-20T02:02:06.996Z,5.57
2019-04-20T02:03:36.972Z,5.30
2019-04-20T02:04:48.189Z,5.20
2019-04-20T02:06:01.576Z,5.40
2019-04-20T02:07:00.470Z,5.33
2019-04-20T02:08:08.763Z,5.30
2019-04-20T02:09:14.998Z,5.60
2019-04-20T02:10:18.282Z,5.73
2019-04-20T02:11:29.661Z,5.47
2019-04-20T02:12:33.818Z,5.33
2019-04-20T02:13:43.410Z,5.60
2019-04-20T02:14:45.392Z,5.43
2019-04-20T02:15:51.196Z,5.50
2019-04-20T02:17:03.499Z,6.20
2019-04-20T02:18:12.010Z,6.10
2019-04-20T02:19:21.683Z,5.53
2019-04-20T02:20:33.017Z,5.50
2019-04-20T02:21:35.727Z,5.73
2019-04-20T02:22:42.168Z,5.67
2019-04-20T02:23:39.989Z,6.13
2019-04-20T02:24:36.988Z,6.20
2019-04-20T02:25:41.877Z,6.00
2019-04-20T02:26:47.216Z,5.30
2019-04-20T02:28:01.410Z,5.30
2019-04-20T02:29:27.707Z,5.80
2019-04-20T02:30:40.638Z,5.77
2019-04-20T02:35:36.066Z,5.80
2019-04-20T02:38:06.889Z,5.43
2019-04-20T02:40:01.857Z,5.73
2019-04-20T02:41:10.191Z,6.10
2019-04-20T02:42:19.751Z,5.33
2019-04-20T02:43:28.451Z,5.40
2019-04-20T02:46:40.873Z,5.20
2019-04-20T02:47:47.252Z,5.70
2019-04-20T02:48:50.248Z,5.60
2019-04-20T02:50:59.272Z,5.40
2019-04-20T02:53:20.445Z,5.47
2019-04-20T02:54:18.747Z,5.77
2019-04-20T02:55:45.965Z,5.60
2019-04-20T02:58:50.316Z,5.90
2019-04-20T03:00:05.521Z,5.77
2019-04-20T03:00:44.690Z,6.10
2019-04-20T03:01:52.159Z,6.30
2019-04-20T03:02:49.812Z,6.20
2019-04-20T03:03:50.435Z,6.13
2019-04-20T03:05:05.130Z,6.40
2019-04-20T03:06:12.640Z,6.40
2019-04-20T03:07:15.432Z,5.93
2019-04-20T03:08:22.238Z,6.33
2019-04-20T03:09:36.854Z,6.17
2019-04-20T03:10:50.592Z,6.60
2019-04-20T03:11:53.022Z,6.47
2019-04-20T03:12:53.466Z,6.17
2019-04-20T03:13:59.085Z,6.33
2019-04-20T03:15:00.652Z,6.30
2019-04-20T03:16:12.372Z,6.70
2019-04-20T03:17:21.392Z,6.60
2019-04-20T03:18:20.372Z,6.30
2019-04-20T03:19:25.090Z,6.60
2019-04-20T03:20:38.556Z,6.57
2019-04-20T03:21:47.633Z,6.77
2019-04-20T03:23:11.618Z,5.90
2019-04-20T03:24:00.864Z,6.27
2019-04-20T03:25:05.053Z,6.43
2019-04-20T03:26:17.591Z,6.67
2019-04-20T03:27:24.820Z,6.63
2019-04-20T03:28:50.543Z,5.87
2019-04-20T03:30:04.489Z,6.10
2019-04-20T03:31:44.357Z,6.20
2019-04-20T03:33:00.185Z,6.13
2019-04-20T03:33:53.750Z,6.07
2019-04-20T03:34:55.223Z,6.07
2019-04-20T03:35:42.897Z,6.10
2019-04-20T03:36:53.713Z,7.10
2019-04-20T03:37:48.494Z,6.43
2019-04-20T03:38:55.025Z,6.03
2019-04-20T03:39:59.236Z,6.93
2019-04-20T03:40:59.117Z,6.60
2019-04-20T03:41:55.837Z,7.33
2019-04-20T03:42:59.283Z,6.83
2019-04-20T03:44:09.022Z,6.47
2019-04-20T03:45:14.781Z,6.30
2019-04-20T03:46:20.837Z,6.40
2019-04-20T03:47:30.421Z,6.23
2019-04-20T03:48:42.221Z,6.53
2019-04-20T03:50:14.674Z,6.50
2019-04-20T03:50:56.665Z,6.63
2019-04-20T03:52:23.324Z,6.20
2019-04-20T03:53:34.496Z,6.63
2019-04-20T03:54:34.606Z,6.60
2019-04-20T03:55:51.219Z,6.93
2019-04-20T03:57:17.044Z,6.57
2019-04-20T03:58:37.934Z,6.60
2019-04-20T04:00:00.643Z,6.20
2019-04-20T04:03:16.555Z,6.70
2019-04-20T04:04:14.895Z,6.67
2019-04-20T04:05:27.443Z,7.20
2019-04-20T04:06:26.402Z,6.73
2019-04-20T04:07:32.353Z,7.60
2019-04-20T04:08:36.344Z,7.13
2019-04-20T04:09:46.667Z,7.43
2019-04-20T04:11:01.478Z,6.60
2019-04-20T04:11:58.617Z,6.70
2019-04-20T04:13:14.752Z,7.07
2019-04-20T04:14:19.855Z,7.27
2019-04-20T04:15:25.350Z,6.37
2019-04-20T04:16:37.281Z,6.97
2019-04-20T04:17:41.566Z,7.40
2019-04-20T04:18:46.123Z,7.20
2019-04-20T04:19:55.806Z,6.80
2019-04-20T04:21:02.894Z,7.03
2019-04-20T04:22:12.683Z,7.80
2019-04-20T04:23:22.038Z,7.33
2019-04-20T04:24:27.177Z,7.30
2019-04-20T04:25:29.668Z,7.30
2019-04-20T04:26:38.935Z,7.03
2019-04-20T04:27:53.195Z,7.23
2019-04-20T04:28:56.309Z,6.67
2019-04-20T04:30:02.824Z,6.53
2019-04-20T04:32:25.531Z,7.20
2019-04-20T04:34:30.615Z,6.73
2019-04-20T04:35:26.749Z,7.70
2019-04-20T04:36:47.690Z,7.50
2019-04-20T04:37:45.692Z,7.20
2019-04-20T04:39:08.903Z,8.23
2019-04-20T04:40:11.186Z,7.00
2019-04-20T04:42:18.782Z,7.37
2019-04-20T04:43:15.967Z,7.80
2019-04-20T04:44:22.624Z,8.17
2019-04-20T04:45:14.175Z,7.67
2019-04-20T04:46:16.599Z,7.47
2019-04-20T04:47:21.927Z,7.30
2019-04-20T04:48:32.070Z,7.40
2019-04-20T04:49:38.170Z,7.47
2019-04-20T04:50:47.481Z,7.50
2019-04-20T04:51:54.447Z,7.63
2019-04-20T04:53:01.043Z,7.77
2019-04-20T04:54:03.652Z,7.83
2019-04-20T04:55:10.860Z,7.77
2019-04-20T04:56:14.152Z,8.07
2019-04-20T04:57:15.744Z,7.83
2019-04-20T04:58:21.481Z,7.77
2019-04-20T04:59:27.455Z,7.67
2019-04-20T05:00:34.220Z,7.60
2019-04-20T05:01:39.397Z,7.20
2019-04-20T05:02:51.715Z,7.47
2019-04-20T05:04:17.193Z,8.70
2019-04-20T05:05:32.371Z,7.30
2019-04-20T05:06:35.546Z,7.47
2019-04-20T05:07:43.803Z,7.77
2019-04-20T05:08:41.697Z,8.23
2019-04-20T05:09:41.519Z,8.20
2019-04-20T05:10:47.907Z,7.37
2019-04-20T05:11:59.727Z,7.60
2019-04-20T05:12:58.804Z,7.43
2019-04-20T05:14:08.642Z,8.53
2019-04-20T05:15:21.208Z,7.33
2019-04-20T05:16:38.547Z,7.50
2019-04-20T05:17:43.806Z,7.83
2019-04-20T05:18:55.281Z,8.07
2019-04-20T05:19:55.295Z,7.83
2019-04-20T05:21:08.753Z,7.23
2019-04-20T05:22:24.898Z,7.60
2019-04-20T05:23:41.402Z,7.53
2019-04-20T05:25:03.557Z,6.80
2019-04-20T05:26:29.905Z,7.30
2019-04-20T05:27:53.471Z,6.20
2019-04-20T05:28:58.341Z,7.63
2019-04-20T05:29:54.994Z,7.37
2019-04-20T05:31:02.981Z,6.70
2019-04-20T05:32:12.461Z,7.47
2019-04-20T05:33:27.049Z,6.93
2019-04-20T05:34:38.471Z,6.97
2019-04-20T05:35:47.234Z,7.60
2019-04-20T05:36:53.118Z,7.00
2019-04-20T05:38:02.598Z,7.10
2019-04-20T05:39:11.171Z,7.37
2019-04-20T05:40:10.734Z,6.63
2019-04-20T05:41:11.814Z,6.70
2019-04-20T05:42:28.456Z,6.73
2019-04-20T05:43:29.192Z,6.97
2019-04-20T05:44:44.369Z,6.97
2019-04-20T05:45:42.608Z,7.03
2019-04-20T05:46:53.595Z,6.77
2019-04-20T05:47:52.645Z,6.90
2019-04-20T05:49:03.198Z,6.63
2019-04-20T05:50:02.452Z,6.60
2019-04-20T05:51:21.140Z,6.67
2019-04-20T05:52:36.164Z,7.10
2019-04-20T05:53:32.591Z,6.67
2019-04-20T05:54:42.948Z,6.67
2019-04-20T05:55:41.651Z,6.57
2019-04-20T05:56:46.844Z,6.80
2019-04-20T05:57:56.393Z,6.43
2019-04-20T05:58:56.613Z,6.40
2019-04-20T06:00:08.367Z,6.83
2019-04-20T06:01:12.306Z,7.03
2019-04-20T06:02:19.347Z,6.97
2019-04-20T06:03:20.289Z,7.03
2019-04-20T06:04:46.261Z,6.77
2019-04-20T06:05:47.735Z,7.20
2019-04-20T06:06:46.203Z,6.93
2019-04-20T06:07:48.605Z,6.77
2019-04-20T06:08:59.312Z,6.70
2019-04-20T06:10:09.438Z,6.67
2019-04-20T06:11:07.950Z,7.37
2019-04-20T06:12:31.678Z,6.40
2019-04-20T06:13:28.063Z,6.23
2019-04-20T06:14:53.798Z,7.20
2019-04-20T06:16:20.119Z,6.70
2019-04-20T06:17:31.440Z,6.80
2019-04-20T06:18:40.219Z,6.70
2019-04-20T06:19:54.661Z,7.17
2019-04-20T06:21:02.330Z,6.60
2019-04-20T06:22:11.382Z,7.27
2019-04-20T06:25:14.537Z,6.87
2019-04-20T06:26:20.955Z,7.03
2019-04-20T06:27:17.952Z,7.33
2019-04-20T06:28:17.542Z,6.53
2019-04-20T06:29:23.569Z,6.47
2019-04-20T06:30:28.304Z,6.67
2019-04-20T06:31:40.900Z,7.30
2019-04-20T06:33:30.596Z,6.60
2019-04-20T06:35:51.723Z,6.50
2019-04-20T06:36:48.624Z,6.40
2019-04-20T06:37:55.093Z,6.53
2019-04-20T06:39:02.004Z,6.60
2019-04-20T06:40:08.275Z,6.30
2019-04-20T06:41:18.615Z,6.60
2019-04-20T06:42:22.871Z,6.17
2019-04-20T06:43:19.669Z,6.77
2019-04-20T06:45:39.827Z,6.63
2019-04-20T06:46:47.339Z,6.53
2019-04-20T06:47:47.389Z,7.10
2019-04-20T06:48:51.359Z,6.70
2019-04-20T06:49:56.440Z,6.40
2019-04-20T06:50:57.166Z,6.73
2019-04-20T06:52:24.341Z,6.27
2019-04-20T06:53:39.059Z,5.73
2019-04-20T06:55:06.909Z,7.87
2019-04-20T06:56:23.732Z,6.37
2019-04-20T06:57:31.047Z,6.27
2019-04-20T06:58:43.534Z,6.60
2019-04-20T06:59:43.035Z,6.17
2019-04-20T07:00:49.640Z,6.10
2019-04-20T07:02:17.326Z,5.87
2019-04-20T07:03:01.776Z,6.30
2019-04-20T07:04:30.336Z,6.63
2019-04-20T07:05:26.026Z,6.33
2019-04-20T07:06:35.642Z,5.80
2019-04-20T07:07:24.023Z,5.80
2019-04-20T07:08:49.305Z,5.73
2019-04-20T07:09:49.591Z,5.83
2019-04-20T07:10:48.939Z,5.63
2019-04-20T07:11:51.912Z,5.77
2019-04-20T07:12:49.586Z,5.90
2019-04-20T07:13:53.412Z,6.00
2019-04-20T07:15:00.076Z,6.37
2019-04-20T07:16:21.321Z,5.37
2019-04-20T07:17:39.380Z,5.63
2019-04-20T07:18:43.752Z,5.90
2019-04-20T07:19:44.488Z,5.30
2019-04-20T07:21:35.655Z,6.07
2019-04-20T07:22:36.043Z,6.70
2019-04-20T07:23:26.888Z,6.20
2019-04-20T07:24:40.376Z,5.70
2019-04-20T07:25:42.339Z,5.03
2019-04-20T07:26:51.367Z,5.83
2019-04-20T07:27:54.018Z,5.40
2019-04-20T07:28:58.848Z,5.83
2019-04-20T07:30:04.699Z,6.73
2019-04-20T07:31:06.800Z,6.23
2019-04-20T07:32:09.071Z,6.17
2019-04-20T07:33:21.725Z,6.13
2019-04-20T07:34:26.207Z,6.00
2019-04-20T07:35:30.532Z,5.77
2019-04-20T07:36:39.922Z,5.93
2019-04-20T07:38:13.763Z,5.47
2019-04-20T07:39:04.261Z,5.37
2019-04-20T07:40:07.434Z,5.60
2019-04-20T07:41:17.470Z,5.30
2019-04-20T07:42:19.264Z,5.50
2019-04-20T07:43:21.387Z,5.90
2019-04-20T07:44:36.257Z,5.70
2019-04-20T07:45:46.223Z,5.40
2019-04-20T07:47:45.979Z,5.57
2019-04-20T07:48:50.638Z,5.20
2019-04-20T07:49:55.424Z,5.10
2019-04-20T07:50:55.537Z,5.43
2019-04-20T07:51:50.633Z,5.40
2019-04-20T07:53:12.220Z,5.23
2019-04-20T07:54:28.541Z,5.30
2019-04-20T07:56:39.548Z,5.13
2019-04-20T07:57:39.064Z,5.23
2019-04-20T07:58:35.798Z,5.40
2019-04-20T07:59:55.133Z,4.90
2019-04-20T08:01:10.337Z,5.43
2019-04-20T08:02:36.574Z,4.67
2019-04-20T08:03:44.218Z,4.70
2019-04-20T08:05:08.334Z,4.90
2019-04-20T08:06:27.342Z,4.80
2019-04-20T08:07:35.222Z,4.97
2019-04-20T08:08:43.815Z,4.90
2019-04-20T08:09:46.516Z,4.43
2019-04-20T08:11:02.653Z,4.57
2019-04-20T08:12:20.080Z,5.30
2019-04-20T08:14:35.767Z,5.07
2019-04-20T08:15:43.366Z,4.97
2019-04-20T08:16:57.302Z,5.00
2019-04-20T08:17:51.411Z,4.63
2019-04-20T08:19:12.025Z,5.03
2019-04-20T08:20:18.877Z,4.63
2019-04-20T08:21:29.813Z,4.93
2019-04-20T08:22:33.930Z,4.30
2019-04-20T08:23:38.588Z,4.70
2019-04-20T08:24:43.992Z,4.80
2019-04-20T08:25:43.299Z,4.80
2019-04-20T08:26:45.353Z,4.80
2019-04-20T08:28:06.382Z,4.80
2019-04-20T08:29:36.739Z,5.20
2019-04-20T08:31:22.867Z,5.30
2019-04-20T08:32:37.830Z,4.50
2019-04-20T08:33:55.747Z,5.20
2019-04-20T08:34:56.595Z,4.53
2019-04-20T08:35:58.407Z,4.80
2019-04-20T08:37:01.386Z,4.33
2019-04-20T08:38:37.344Z,4.30
2019-04-20T08:39:30.775Z,4.77
2019-04-20T08:40:25.411Z,4.60
2019-04-20T08:41:24.883Z,4.60
2019-04-20T08:42:39.972Z,4.20
2019-04-20T08:43:47.185Z,4.30
2019-04-20T08:45:01.486Z,4.87
2019-04-20T08:46:03.443Z,4.57
2019-04-20T08:47:10.251Z,4.60
2019-04-20T08:48:18.960Z,4.60
2019-04-20T08:49:20.536Z,4.53
2019-04-20T08:50:24.981Z,4.30
2019-04-20T08:51:39.259Z,4.77
2019-04-20T08:52:55.563Z,4.63
2019-04-20T08:53:44.686Z,4.57
2019-04-20T08:54:41.486Z,5.00
2019-04-20T08:55:51.014Z,4.40
2019-04-20T08:56:46.844Z,4.47
2019-04-20T08:57:46.799Z,4.47
2019-04-20T08:58:52.769Z,4.80
2019-04-20T09:00:01.500Z,4.43
2019-04-20T09:01:08.730Z,4.73
2019-04-20T09:02:15.744Z,4.37
2019-04-20T09:03:25.438Z,4.80
2019-04-20T09:04:40.724Z,5.20
2019-04-20T09:05:42.411Z,5.00
2019-04-20T09:06:54.541Z,4.70
2019-04-20T09:07:56.501Z,4.47
2019-04-20T09:09:03.409Z,4.33
2019-04-20T09:10:16.574Z,4.17
2019-04-20T09:11:19.736Z,4.07
2019-04-20T09:12:24.368Z,4.23
2019-04-20T09:13:24.470Z,4.17
2019-04-20T09:14:23.085Z,3.87
2019-04-20T09:15:27.840Z,4.00
2019-04-20T09:16:38.582Z,4.20
2019-04-20T09:18:00.600Z,3.97
2019-04-20T09:19:07.024Z,3.90
2019-04-20T09:20:14.755Z,3.70
2019-04-20T09:21:25.404Z,4.10
2019-04-20T09:22:50.602Z,3.80
2019-04-20T09:24:09.137Z,3.60
2019-04-20T09:25:27.805Z,3.87
2019-04-20T09:26:18.653Z,3.73
2019-04-20T09:27:20.420Z,4.37
2019-04-20T09:28:27.195Z,4.17
2019-04-20T09:29:32.898Z,5.50
2019-04-20T09:30:40.625Z,4.07
2019-04-20T09:31:53.019Z,4.37
2019-04-20T09:33:09.635Z,3.73
2019-04-20T09:34:20.263Z,4.10
2019-04-20T09:35:25.135Z,3.30
2019-04-20T09:36:32.553Z,3.60
2019-04-20T09:37:51.145Z,3.60
2019-04-20T09:39:05.935Z,3.43
2019-04-20T09:40:41.641Z,3.30
2019-04-20T09:41:45.255Z,3.43
2019-04-20T09:42:30.503Z,3.20
2019-04-20T09:43:43.240Z,3.20
2019-04-20T09:44:51.464Z,3.37
2019-04-20T09:45:58.759Z,3.30
2019-04-20T09:47:03.261Z,3.83
2019-04-20T09:48:11.572Z,3.70
2019-04-20T09:49:20.181Z,3.70
2019-04-20T09:50:31.821Z,3.97
2019-04-20T09:51:40.345Z,3.77
2019-04-20T09:52:49.119Z,4.60
2019-04-20T09:53:48.470Z,3.93
2019-04-20T09:54:59.188Z,4.40
2019-04-20T09:56:07.583Z,4.40
2019-04-20T09:57:13.209Z,3.83
2019-04-20T09:58:13.550Z,4.53
2019-04-20T09:59:25.144Z,3.70
2019-04-20T10:00:31.198Z,3.60
2019-04-20T10:01:31.182Z,3.90
2019-04-20T10:02:29.822Z,4.10
2019-04-20T10:03:32.120Z,3.87
2019-04-20T10:04:37.610Z,3.43
2019-04-20T10:05:43.385Z,4.30
2019-04-20T10:06:47.976Z,4.73
2019-04-20T10:07:55.901Z,4.20
2019-04-20T10:09:02.857Z,4.30
2019-04-20T10:10:20.285Z,4.10
2019-04-20T10:11:11.770Z,3.93
2019-04-20T10:12:17.516Z,4.27
2019-04-20T10:13:22.023Z,3.87
2019-04-20T10:14:26.933Z,3.90
2019-04-20T10:15:32.938Z,4.07
2019-04-20T10:16:37.971Z,4.40
2019-04-20T10:17:43.581Z,3.90
2019-04-20T10:18:51.842Z,4.10
2019-04-20T10:19:55.574Z,4.10
2019-04-20T10:21:00.231Z,4.20
2019-04-20T10:22:04.833Z,4.37
2019-04-20T10:23:09.290Z,4.47
2019-04-20T10:24:14.649Z,4.47
2019-04-20T10:25:20.460Z,4.43
2019-04-20T10:26:24.884Z,4.17
2019-04-20T10:27:30.568Z,4.30
2019-04-20T10:28:35.042Z,4.03
2019-04-20T10:29:39.709Z,4.30
2019-04-20T10:30:44.453Z,4.13
2019-04-20T10:31:55.019Z,4.53
2019-04-20T10:32:55.767Z,4.20
2019-04-20T10:34:00.175Z,4.20
2019-04-20T10:35:04.961Z,4.23
2019-04-20T10:36:19.473Z,4.10
2019-04-20T10:37:27.498Z,4.37
2019-04-20T10:38:34.227Z,4.40
2019-04-20T10:39:42.626Z,4.37
2019-04-20T10:40:58.477Z,3.73
2019-04-20T10:41:57.650Z,3.73
2019-04-20T10:43:01.125Z,3.90
2019-04-20T10:44:07.049Z,4.97
2019-04-20T10:45:12.863Z,4.67
2019-04-20T10:46:17.416Z,4.10
2019-04-20T10:47:22.992Z,4.40
2019-04-20T10:48:31.113Z,4.10
2019-04-20T10:49:33.647Z,4.00
2019-04-20T10:50:38.973Z,3.70
2019-04-20T10:51:43.949Z,3.77
2019-04-20T10:52:49.880Z,4.13
2019-04-20T10:53:54.367Z,3.87
2019-04-20T10:54:58.771Z,4.37
2019-04-20T10:56:03.455Z,4.60
2019-04-20T10:57:08.178Z,4.80
2019-04-20T10:58:13.642Z,3.93
2019-04-20T10:59:19.287Z,4.73
2019-04-20T11:00:39.713Z,4.57
2019-04-20T11:01:45.562Z,4.43
2019-04-20T11:02:51.343Z,4.97
2019-04-20T11:03:56.542Z,3.97
2019-04-20T11:05:02.625Z,3.90
2019-04-20T11:06:07.210Z,4.53
2019-04-20T11:07:12.501Z,4.40
2019-04-20T11:08:17.041Z,4.20
2019-04-20T11:09:22.634Z,4.17
2019-04-20T11:10:29.290Z,4.70
2019-04-20T11:11:34.171Z,4.43
2019-04-20T11:12:40.115Z,4.47
2019-04-20T11:13:45.594Z,4.30
2019-04-20T11:14:50.287Z,4.03
2019-04-20T11:15:54.803Z,3.90
2019-04-20T11:17:00.235Z,4.63
2019-04-20T11:18:05.560Z,4.30
2019-04-20T11:19:09.925Z,4.00
2019-04-20T11:20:15.178Z,4.37
2019-04-20T11:21:19.908Z,4.17
2019-04-20T11:22:24.280Z,4.53
2019-04-20T11:23:28.769Z,4.30
2019-04-20T11:24:34.429Z,3.77
2019-04-20T11:25:40.000Z,4.40
2019-04-20T11:26:45.097Z,4.27
2019-04-20T11:27:50.524Z,4.47
2019-04-20T11:28:55.856Z,4.47
2019-04-20T11:30:00.514Z,4.10
2019-04-20T11:31:06.017Z,4.10
2019-04-20T11:32:14.014Z,4.20
2019-04-20T11:33:16.612Z,4.25
2019-04-20T11:34:26.953Z,4.08
2019-04-20T11:35:32.639Z,3.70
2019-04-20T11:36:34.919Z,4.03
2019-04-20T11:37:39.456Z,3.85
2019-04-20T11:38:44.906Z,4.10
2019-04-20T11:39:50.706Z,4.50
2019-04-20T11:41:09.942Z,3.70
2019-04-20T11:42:01.630Z,3.90
2019-04-20T11:43:06.198Z,3.92
2019-04-20T11:44:11.698Z,3.52
2019-04-20T11:45:16.371Z,3.70
2019-04-20T11:46:20.740Z,3.25
2019-04-20T11:47:25.164Z,3.45
2019-04-20T11:48:29.701Z,4.53
2019-04-20T11:49:35.372Z,3.55
2019-04-20T11:50:39.943Z,3.83
2019-04-20T11:51:45.578Z,3.75
2019-04-20T11:52:51.498Z,3.75
2019-04-20T11:53:56.466Z,3.60
2019-04-20T11:55:02.292Z,3.98
2019-04-20T11:56:15.423Z,4.00
2019-04-20T11:57:13.346Z,4.42
2019-04-20T11:58:17.674Z,4.12
2019-04-20T11:59:23.145Z,3.70
2019-04-20T12:00:47.184Z,3.75
2019-04-20T12:02:04.655Z,3.62
2019-04-20T12:03:47.886Z,3.50
2019-04-20T12:04:51.837Z,4.30
2019-04-20T12:05:56.942Z,3.27
2019-04-20T12:06:59.227Z,3.40
2019-04-20T12:08:07.044Z,3.30
2019-04-20T12:09:12.882Z,3.20
2019-04-20T12:10:22.707Z,3.27
2019-04-20T12:11:33.945Z,3.67
2019-04-20T12:12:39.011Z,3.40
2019-04-20T12:13:38.576Z,3.37
2019-04-20T12:14:43.003Z,3.22
2019-04-20T12:15:47.719Z,3.37
2019-04-20T12:16:53.365Z,3.00
2019-04-20T12:17:58.132Z,3.17
2019-04-20T12:19:02.544Z,3.30
2019-04-20T12:20:08.081Z,3.35
2019-04-20T12:21:12.810Z,3.08
2019-04-20T12:22:18.003Z,3.20
2019-04-20T12:23:22.522Z,2.95
2019-04-20T12:24:26.896Z,3.45
2019-04-20T12:25:34.200Z,2.90
2019-04-20T12:26:38.646Z,2.75
2019-04-20T12:27:50.733Z,3.35
2019-04-20T12:28:49.719Z,3.12
2019-04-20T12:29:54.222Z,3.20
2019-04-20T12:31:04.129Z,3.12
2019-04-20T12:32:06.927Z,3.30
2019-04-20T12:33:11.540Z,3.20
2019-04-20T12:34:16.205Z,3.30
2019-04-20T12:35:22.378Z,3.10
2019-04-20T12:36:28.040Z,3.12
2019-04-20T12:37:34.135Z,3.20
2019-04-20T12:38:39.141Z,3.17
2019-04-20T12:39:44.917Z,3.17
2019-04-20T12:40:50.358Z,2.65
2019-04-20T12:41:58.848Z,2.40
2019-04-20T12:43:01.338Z,2.40
2019-04-20T12:44:06.235Z,2.40
2019-04-20T12:45:11.576Z,2.50
2019-04-20T12:46:18.343Z,2.50
2019-04-20T12:47:22.168Z,2.70
2019-04-20T12:48:26.708Z,2.60
2019-04-20T12:49:31.696Z,2.50
2019-04-20T12:50:37.418Z,2.65
2019-04-20T12:51:50.562Z,3.55
2019-04-20T12:52:48.377Z,3.22
2019-04-20T12:53:52.894Z,2.65
2019-04-20T12:55:00.858Z,3.00
2019-04-20T12:56:04.358Z,3.08
2019-04-20T12:57:09.030Z,2.72
2019-04-20T12:58:14.598Z,2.80
2019-04-20T12:59:19.215Z,3.10
2019-04-20T13:00:29.937Z,2.70
2019-04-20T13:01:35.440Z,2.80
2019-04-20T13:02:41.138Z,3.15
2019-04-20T13:03:45.723Z,3.05
2019-04-20T13:04:51.174Z,2.60
2019-04-20T13:05:56.163Z,2.47
2019-04-20T13:07:01.764Z,2.60
2019-04-20T13:08:07.573Z,2.40
2019-04-20T13:09:14.595Z,2.80
2019-04-20T13:10:19.338Z,2.75
2019-04-20T13:11:44.360Z,2.90
2019-04-20T13:12:58.620Z,3.08
2019-04-20T13:14:42.227Z,3.90
2019-04-20T13:16:06.327Z,2.80
2019-04-20T13:17:10.750Z,2.80
2019-04-20T13:18:17.008Z,2.40
2019-04-20T13:19:21.722Z,2.87
2019-04-20T13:20:26.386Z,2.80
2019-04-20T13:21:32.343Z,2.55
2019-04-20T13:22:37.086Z,2.40
2019-04-20T13:23:42.758Z,2.58
2019-04-20T13:24:47.455Z,2.25
2019-04-20T13:25:52.961Z,2.60
2019-04-20T13:26:58.681Z,3.15
2019-04-20T13:28:03.495Z,3.72
2019-04-20T13:29:08.766Z,3.20
2019-04-20T13:30:14.259Z,2.65
2019-04-20T13:31:19.889Z,2.25
2019-04-20T13:32:25.708Z,2.58
2019-04-20T13:33:31.392Z,2.70
2019-04-20T13:34:36.109Z,2.83
2019-04-20T13:35:40.714Z,2.60
2019-04-20T13:36:46.196Z,2.92
2019-04-20T13:37:51.973Z,2.77
2019-04-20T13:38:56.844Z,2.92
2019-04-20T13:40:03.067Z,2.67
2019-04-20T13:41:07.725Z,2.65
2019-04-20T13:42:20.271Z,3.10
2019-04-20T13:43:19.791Z,2.60
2019-04-20T13:44:24.325Z,2.60
2019-04-20T13:45:28.852Z,3.00
2019-04-20T13:46:33.389Z,2.95
2019-04-20T13:47:39.031Z,2.40
2019-04-20T13:48:44.719Z,2.80
2019-04-20T13:49:49.315Z,2.55
2019-04-20T13:50:54.014Z,2.72
2019-04-20T13:51:59.060Z,2.70
2019-04-20T13:53:03.640Z,2.50
2019-04-20T13:54:15.110Z,2.50
2019-04-20T13:55:15.016Z,2.55
2019-04-20T13:56:21.773Z,2.60
2019-04-20T13:57:33.747Z,2.65
2019-04-20T13:58:45.673Z,3.20
2019-04-20T13:59:53.674Z,2.60
2019-04-20T14:01:08.497Z,2.45
2019-04-20T14:02:26.775Z,2.20
2019-04-20T14:03:32.277Z,2.70
2019-04-20T14:04:44.843Z,2.90
2019-04-20T14:05:50.836Z,2.45
2019-04-20T14:06:57.559Z,2.62
2019-04-20T14:08:05.330Z,2.58
2019-04-20T14:09:09.930Z,3.05
2019-04-20T14:10:15.446Z,2.80
2019-04-20T14:11:21.068Z,2.42
2019-04-20T14:12:32.389Z,2.90
2019-04-20T14:13:40.373Z,2.80
2019-04-20T14:14:39.144Z,2.33
2019-04-20T14:15:45.079Z,2.58
2019-04-20T14:16:50.469Z,2.50
2019-04-20T14:17:55.291Z,2.85
2019-04-20T14:19:00.915Z,2.60
2019-04-20T14:20:11.847Z,3.00
2019-04-20T14:21:12.299Z,2.77
2019-04-20T14:22:16.650Z,2.65
2019-04-20T14:23:21.222Z,3.00
2019-04-20T14:24:26.787Z,2.92
2019-04-20T14:25:31.343Z,2.70
2019-04-20T14:26:38.616Z,2.55
2019-04-20T14:27:42.651Z,3.20
2019-04-20T14:28:47.520Z,3.45
2019-04-20T14:29:52.918Z,2.92
2019-04-20T14:30:58.201Z,3.25
2019-04-20T14:32:04.184Z,2.87
2019-04-20T14:33:08.941Z,2.60
2019-04-20T14:34:13.532Z,2.85
2019-04-20T14:35:18.794Z,3.05
2019-04-20T14:36:24.374Z,3.00
2019-04-20T14:37:29.094Z,2.92
2019-04-20T14:38:33.969Z,3.20
2019-04-20T14:39:38.441Z,3.60
2019-04-20T14:40:43.976Z,2.80
2019-04-20T14:41:48.829Z,3.85
2019-04-20T14:42:55.171Z,3.08
2019-04-20T14:43:59.363Z,3.35
2019-04-20T14:45:04.744Z,3.50
2019-04-20T14:46:10.625Z,3.35
2019-04-20T14:47:15.977Z,3.02
2019-04-20T14:48:20.780Z,3.40
2019-04-20T14:49:25.306Z,3.37
2019-04-20T14:50:29.893Z,3.10
2019-04-20T14:51:35.333Z,3.05
2019-04-20T14:52:39.898Z,3.40
2019-04-20T14:53:45.377Z,3.08
2019-04-20T14:54:50.037Z,3.72
2019-04-20T14:55:55.560Z,3.40
2019-04-20T14:57:01.400Z,3.35
2019-04-20T14:58:11.257Z,3.22
2019-04-20T14:59:23.601Z,3.55
2019-04-20T15:00:53.314Z,3.50
2019-04-20T15:02:02.787Z,3.30
2019-04-20T15:03:30.213Z,3.50
2019-04-20T15:04:35.157Z,3.00
2019-04-20T15:05:41.760Z,3.20
2019-04-20T15:06:46.618Z,2.65
2019-04-20T15:07:51.356Z,2.55
2019-04-20T15:08:56.704Z,2.90
2019-04-20T15:10:02.923Z,2.47
2019-04-20T15:11:07.640Z,2.55
2019-04-20T15:12:12.943Z,2.65
2019-04-20T15:13:17.648Z,2.85
2019-04-20T15:14:22.818Z,2.70
2019-04-20T15:15:28.337Z,2.55
2019-04-20T15:16:33.148Z,2.50
2019-04-20T15:17:43.725Z,2.37
2019-04-20T15:19:11.679Z,2.50
2019-04-20T15:20:45.693Z,2.70
2019-04-20T15:21:51.731Z,2.90
2019-04-20T15:22:59.301Z,2.62
2019-04-20T15:24:03.944Z,2.50